Time;durP1;ratioP1;P1;durP2;ratioP2;P2;SDS_P1;SDS_P2;PMS_P1;PMS_P2;Temp;Humidity;BMP_temperature;BMP_pressure;BME280_temperature;BME280_humidity;BME280_pressure;Samples;Min_cycle;Max_cycle;Signal;HPM_P1;HPM_P2
2022/01/21 06:39:08;;;;;;;11.02;5.65;;;;;;;1.33;72.65;101470.19;1089267;47;20026;-84
2022/01/21 06:40:17;;;;;;;8.63;4.30;;;;;;;1.32;72.74;101457.94;1088485;54;20019;-84
2022/01/21 06:41:19;;;;;;;13.32;5.53;;;;;;;1.32;72.99;101454.44;1088500;54;20019;-84
2022/01/21 06:42:42;;;;;;;16.42;5.53;;;;;;;1.19;74.49;101452.19;1088558;54;20050;-86
2022/01/21 06:52:00;;;;;;;19.70;6.63;;;;;;;1.02;73.39;101447.47;1087814;54;21568;-85
2022/01/21 06:53:13;;;;;;;16.92;4.97;;;;;;;1.16;73.57;101449.66;1087690;54;20046;-82
2022/01/21 06:54:20;;;;;;;11.43;4.80;;;;;;;1.22;73.26;101449.47;1088394;54;20035;-82
2022/01/21 06:55:33;;;;;;;15.77;5.82;;;;;;;1.22;72.86;101451.25;1088203;54;20070;-82
2022/01/21 06:56:34;;;;;;;12.70;5.20;;;;;;;1.37;73.16;101453.38;1088167;54;20035;-83
2022/01/21 06:57:47;;;;;;;12.63;4.65;;;;;;;1.47;72.50;101458.31;1088308;54;20090;-82
2022/01/21 06:58:48;;;;;;;11.35;5.05;;;;;;;1.59;72.44;101452.66;1088186;54;20082;-83
2022/01/21 07:00:13;;;;;;;9.13;4.00;;;;;;;1.64;71.83;101463.88;1088271;54;20030;-83
2022/01/21 07:01:17;;;;;;;13.05;4.65;;;;;;;1.54;72.25;101465.09;1088416;54;20034;-81
2022/01/21 07:02:27;;;;;;;7.68;4.18;;;;;;;1.66;72.09;101467.34;1088297;54;20030;-82
2022/01/21 07:03:35;;;;;;;11.13;4.32;;;;;;;1.68;72.03;101462.88;1088402;54;20034;-83
2022/01/21 07:05:04;;;;;;;10.20;4.47;;;;;;;1.33;71.73;101464.06;1088344;54;20034;-83
2022/01/21 07:06:09;;;;;;;11.45;4.60;;;;;;;1.38;72.56;101456.84;1088274;54;20030;-81
2022/01/21 07:07:24;;;;;;;10.70;4.30;;;;;;;1.20;72.23;101464.44;1088353;54;20097;-82
2022/01/21 07:08:47;;;;;;;14.88;5.70;;;;;;;1.11;72.76;101459.47;1089072;47;20030;-81
2022/01/21 07:09:55;;;;;;;14.38;5.00;;;;;;;1.19;72.79;101464.50;1088428;54;20029;-83
2022/01/21 07:11:00;;;;;;;17.40;5.88;;;;;;;1.08;72.92;101462.22;1088428;54;20029;-82
2022/01/21 07:12:30;;;;;;;16.63;5.07;;;;;;;1.21;72.44;101468.81;1088332;54;20041;-81
2022/01/21 07:13:37;;;;;;;13.13;4.90;;;;;;;1.22;72.82;101465.28;1088358;54;20062;-82
2022/01/21 07:14:42;;;;;;;16.88;5.57;;;;;;;1.21;72.77;101463.53;1091637;47;20031;-83
2022/01/21 07:15:50;;;;;;;12.25;5.00;;;;;;;1.24;72.78;101470.47;1088274;54;20022;-82
2022/01/21 07:17:01;;;;;;;11.30;4.70;;;;;;;1.19;72.77;101472.41;1088272;54;20058;-84
2022/01/21 07:18:06;;;;;;;19.42;5.93;;;;;;;1.12;73.07;101474.38;1088158;54;20022;-84
2022/01/21 07:19:11;;;;;;;17.95;6.03;;;;;;;1.06;73.29;101470.16;1088136;54;20030;-85
2022/01/21 07:20:28;;;;;;;14.05;5.53;;;;;;;1.09;73.35;101475.34;1088243;54;20019;-82
2022/01/21 07:21:56;;;;;;;15.57;5.25;;;;;;;1.13;72.92;101476.09;1088664;54;20022;-81
2022/01/21 07:23:27;;;;;;;18.75;5.88;;;;;;;1.06;73.22;101466.69;1088524;54;20039;-83
2022/01/21 07:24:35;;;;;;;20.88;5.78;;;;;;;1.12;73.03;101463.00;1089218;46;20035;-81
2022/01/21 07:25:40;;;;;;;10.32;5.05;;;;;;;1.09;73.32;101463.94;1090481;46;20038;-83
2022/01/21 07:26:50;;;;;;;16.30;5.22;;;;;;;1.09;73.36;101469.19;1088604;54;20030;-84
2022/01/21 07:27:52;;;;;;;13.07;4.90;;;;;;;1.14;73.32;101472.56;1088539;54;20102;-83
2022/01/21 07:29:19;;;;;;;11.32;4.85;;;;;;;1.26;73.07;101473.94;1088628;54;20019;-84
2022/01/21 07:30:24;;;;;;;12.10;5.40;;;;;;;1.21;72.95;101473.22;1088640;54;20015;-83
2022/01/21 07:32:01;;;;;;;14.52;5.47;;;;;;;1.23;72.84;101472.25;1088967;39;20512;-82
2022/01/21 07:33:07;;;;;;;16.23;6.88;;;;;;;1.27;72.78;101470.38;1088581;54;20037;-82
2022/01/21 07:34:17;;;;;;;17.20;5.53;;;;;;;1.09;73.08;101472.72;1088515;54;20042;-84
2022/01/21 07:35:19;;;;;;;;;;;;;;;1.04;73.18;101481.66;1088611;54;20063;-84
2022/01/21 07:36:32;;;;;;;19.58;6.35;;;;;;;1.01;73.14;101472.09;1088567;54;19950;-84
2022/01/21 07:37:34;;;;;;;12.30;5.68;;;;;;;0.98;73.54;101466.91;1089366;46;20102;-85
2022/01/21 07:39:07;;;;;;;13.82;5.72;;;;;;;1.00;73.41;101473.00;1095578;46;20026;-80
2022/01/21 07:40:13;;;;;;;13.23;5.15;;;;;;;1.09;73.38;101470.06;1088568;54;20057;-83
2022/01/21 07:41:18;;;;;;;17.00;5.93;;;;;;;1.23;73.03;101474.03;1088605;54;20094;-84
2022/01/21 07:42:24;;;;;;;11.98;5.15;;;;;;;1.23;72.76;101474.03;1088572;54;20057;-83
2022/01/21 07:43:28;;;;;;;16.45;5.65;;;;;;;1.28;72.96;101476.50;1088609;54;20015;-82
2022/01/21 07:44:56;;;;;;;10.73;4.85;;;;;;;1.16;72.70;101473.38;1111890;39;20639;-84
2022/01/21 07:45:58;;;;;;;11.10;5.07;;;;;;;1.05;73.16;101478.97;1088745;54;20014;-86
2022/01/21 07:55:35;;;;;;;13.27;5.50;;;;;;;1.27;72.41;101478.28;1089142;39;21069;-82
2022/01/21 07:59:08;;;;;;;11.27;4.85;;;;;;;1.36;72.38;101479.78;1087643;54;20063;-85
2022/01/21 08:00:13;;;;;;;15.55;6.10;;;;;;;1.40;72.53;101482.25;1088473;54;20801;-83
2022/01/21 08:01:18;;;;;;;12.25;5.47;;;;;;;1.54;72.13;101486.19;1088355;54;20101;-84
2022/01/21 08:02:27;;;;;;;14.98;5.85;;;;;;;1.48;71.94;101475.88;1088367;54;20046;-83
2022/01/21 08:03:31;;;;;;;16.13;6.28;;;;;;;1.34;72.14;101478.97;1088528;54;20034;-83
2022/01/21 08:05:01;;;;;;;15.20;5.53;;;;;;;1.55;71.87;101482.66;1094427;46;20030;-83
2022/01/21 08:06:17;;;;;;;12.52;4.97;;;;;;;1.73;71.73;101488.22;1089645;46;20034;-82
2022/01/21 08:07:22;;;;;;;11.82;4.70;;;;;;;1.81;71.54;101487.03;1088452;54;20059;-83
2022/01/21 08:08:30;;;;;;;9.75;4.78;;;;;;;1.89;71.12;101485.91;1088447;54;20079;-83
2022/01/21 08:09:36;;;;;;;12.80;4.68;;;;;;;1.93;71.18;101485.75;1088372;54;20086;-82
2022/01/21 08:10:40;;;;;;;13.52;5.53;;;;;;;1.66;71.55;101485.78;1088300;54;20042;-83
2022/01/21 08:11:58;;;;;;;13.18;6.30;;;;;;;1.46;71.41;101482.97;1088493;54;20063;-82
2022/01/21 08:13:03;;;;;;;15.13;6.43;;;;;;;1.37;72.15;101478.88;1088375;54;20018;-82
2022/01/21 08:14:10;;;;;;;13.05;5.93;;;;;;;1.36;71.99;101493.81;1088271;54;20699;-83
2022/01/21 08:15:15;;;;;;;13.10;5.80;;;;;;;1.24;72.00;101487.16;1088321;54;20025;-82
2022/01/21 08:16:25;;;;;;;15.35;6.00;;;;;;;1.22;71.69;101477.59;1088388;54;20061;-83
2022/01/21 08:17:31;;;;;;;15.13;6.43;;;;;;;1.38;71.87;101480.56;1095830;39;20544;-82
2022/01/21 08:18:37;;;;;;;12.00;5.57;;;;;;;1.29;71.92;101471.22;1093349;39;20457;-81
2022/01/21 08:19:39;;;;;;;15.75;5.82;;;;;;;1.26;72.00;101466.03;1088492;54;20766;-83
2022/01/21 08:20:59;;;;;;;19.10;7.00;;;;;;;1.20;72.12;101471.50;1088527;54;20041;-82
2022/01/21 08:22:00;;;;;;;18.25;7.35;;;;;;;1.28;72.07;101474.75;1088381;54;20018;-83
2022/01/21 08:23:30;;;;;;;12.25;6.53;;;;;;;1.35;71.77;101471.00;1088370;54;20067;-81
2022/01/21 08:24:32;;;;;;;13.57;6.85;;;;;;;1.35;71.81;101468.34;1088361;54;20039;-82
2022/01/21 08:25:46;;;;;;;17.27;7.78;;;;;;;1.11;71.95;101467.38;1088400;54;20019;-83
2022/01/21 08:26:48;;;;;;;14.98;6.88;;;;;;;1.12;72.31;101468.25;1088322;54;20094;-81
2022/01/21 08:28:01;;;;;;;14.35;7.13;;;;;;;1.13;72.37;101465.56;1088320;54;20018;-82
2022/01/21 08:29:07;;;;;;;19.23;7.18;;;;;;;1.14;72.45;101466.41;1088385;54;20038;-83
2022/01/21 08:30:13;;;;;;;13.50;6.22;;;;;;;1.26;72.07;101467.81;1088369;54;20018;-83
2022/01/21 08:31:18;;;;;;;19.30;7.57;;;;;;;1.23;72.24;101474.03;1088352;54;20035;-84
2022/01/21 08:32:23;;;;;;;15.35;6.88;;;;;;;1.20;72.09;101474.13;1088148;54;20067;-81
2022/01/21 08:33:25;;;;;;;15.10;6.43;;;;;;;1.24;72.04;101478.38;1088373;54;20292;-82
2022/01/21 08:34:55;;;;;;;18.58;6.18;;;;;;;1.29;71.95;101489.66;1088399;54;20086;-83
2022/01/21 08:35:59;;;;;;;11.25;5.70;;;;;;;1.30;71.95;101478.19;1088390;54;20022;-84
2022/01/21 08:37:24;;;;;;;10.35;5.25;;;;;;;1.35;71.87;101481.53;1088507;54;20018;-82
2022/01/21 08:38:29;;;;;;;16.45;6.28;;;;;;;1.39;71.81;101487.56;1088517;46;20042;-81
2022/01/21 08:40:06;;;;;;;11.25;5.57;;;;;;;1.48;71.25;101486.41;1088419;54;20026;-83
2022/01/21 08:41:13;;;;;;;18.40;7.80;;;;;;;1.46;71.38;101481.19;1088474;54;20014;-83
2022/01/21 08:42:17;;;;;;;10.70;5.55;;;;;;;1.62;71.18;101484.16;1088145;54;20533;-84
2022/01/21 08:43:29;;;;;;;11.75;5.47;;;;;;;1.81;70.66;101494.06;1088102;54;20022;-84
2022/01/21 08:44:36;;;;;;;12.95;5.82;;;;;;;1.92;70.30;101491.94;1088073;54;20038;-82
2022/01/21 08:45:41;;;;;;;11.45;5.03;;;;;;;2.01;70.09;101501.31;1088121;54;20066;-84
2022/01/21 08:47:20;;;;;;;11.25;5.13;;;;;;;2.01;69.72;101510.06;1091209;39;20526;-82
2022/01/21 08:48:25;;;;;;;10.68;5.28;;;;;;;2.12;69.82;101511.47;1088901;39;20479;-82
2022/01/21 08:49:43;;;;;;;11.23;4.80;;;;;;;2.08;69.63;101517.78;1088163;54;20046;-82
2022/01/21 08:50:48;;;;;;;11.52;5.28;;;;;;;2.21;69.63;101524.34;1088392;54;20022;-81
2022/01/21 08:52:01;;;;;;;11.07;4.68;;;;;;;2.26;69.13;101517.16;1088444;54;20022;-83
2022/01/21 08:53:36;;;;;;;10.43;5.32;;;;;;;2.26;69.53;101526.81;1088238;54;20038;-81
2022/01/21 08:54:36;;;;;;;18.60;7.32;;;;;;;2.11;69.90;101517.66;1088241;54;20034;-84
2022/01/21 08:55:45;;;;;;;16.83;6.65;;;;;;;2.14;69.28;101522.84;1088187;54;20026;-84
2022/01/21 08:56:51;;;;;;;12.10;6.00;;;;;;;2.27;69.39;101512.72;1088327;54;20018;-85
2022/01/21 08:57:56;;;;;;;15.23;6.25;;;;;;;2.12;69.78;101509.72;1088215;54;20050;-84
2022/01/21 08:58:57;;;;;;;18.23;6.63;;;;;;;1.96;69.66;101514.66;1088378;54;20042;-85
2022/01/21 09:00:05;;;;;;;13.93;6.30;;;;;;;1.85;69.66;101506.25;1088323;54;20706;-83
2022/01/21 09:01:09;;;;;;;17.73;6.10;;;;;;;1.95;69.67;101506.78;1088393;54;20052;-84
2022/01/21 09:02:13;;;;;;;14.02;5.85;;;;;;;1.74;69.77;101506.63;1087609;54;20034;-80
2022/01/21 09:03:15;;;;;;;15.18;6.35;;;;;;;1.79;69.80;101502.06;1086707;54;20050;-79
2022/01/21 09:04:21;;;;;;;13.60;5.60;;;;;;;2.00;69.38;101502.22;1086816;54;20038;-81
2022/01/21 09:05:25;;;;;;;13.75;6.30;;;;;;;2.08;69.27;101491.41;1087455;54;20025;-81
2022/01/21 09:06:35;;;;;;;14.05;6.00;;;;;;;1.93;69.52;101492.81;1087072;54;20042;-82
2022/01/21 09:07:40;;;;;;;17.63;6.32;;;;;;;1.82;69.81;101487.88;1087336;54;20042;-81
2022/01/21 09:08:46;;;;;;;21.63;8.07;;;;;;;1.71;70.04;101493.53;1087506;46;20067;-82
2022/01/21 09:09:50;;;;;;;16.85;6.13;;;;;;;1.63;70.18;101491.16;1086730;54;20167;-82
2022/01/21 09:11:09;;;;;;;17.60;6.57;;;;;;;1.70;70.04;101494.47;1087794;54;20030;-82
2022/01/21 09:12:14;;;;;;;12.27;6.22;;;;;;;1.85;69.92;101498.34;1087657;54;20034;-81
2022/01/21 09:13:39;;;;;;;14.45;5.50;;;;;;;1.98;69.56;101497.03;1092617;39;20398;-81
2022/01/21 09:14:44;;;;;;;11.75;5.63;;;;;;;1.87;69.71;101499.16;1087659;54;20049;-81
2022/01/21 09:16:05;;;;;;;12.98;5.68;;;;;;;2.07;69.16;101494.97;1087688;54;20023;-81
2022/01/21 09:17:09;;;;;;;13.38;5.40;;;;;;;2.23;69.00;101490.84;1088102;54;20030;-82
2022/01/21 09:18:20;;;;;;;12.82;5.63;;;;;;;2.24;68.75;101496.97;1088582;46;20066;-82
2022/01/21 09:19:25;;;;;;;20.52;6.93;;;;;;;2.29;68.62;101500.31;1088067;54;20644;-81
2022/01/21 09:20:38;;;;;;;11.35;5.47;;;;;;;2.25;68.61;101510.13;1088270;54;20727;-82
2022/01/21 09:21:44;;;;;;;13.60;5.30;;;;;;;2.34;68.48;101514.22;1088149;54;20034;-83
2022/01/21 09:22:48;;;;;;;11.93;5.07;;;;;;;2.22;68.65;101528.72;1088330;39;20465;-82
2022/01/21 09:24:12;;;;;;;12.27;5.00;;;;;;;2.24;68.51;101518.97;1089181;46;20025;-82
2022/01/21 09:25:16;;;;;;;12.82;5.28;;;;;;;2.37;68.55;101529.06;1088160;54;20014;-83
2022/01/21 09:26:20;;;;;;;12.25;6.20;;;;;;;2.09;68.85;101530.03;1088175;54;20038;-83
2022/01/21 09:27:25;;;;;;;13.63;5.25;;;;;;;2.24;68.63;101526.88;1087996;54;20054;-83
2022/01/21 09:28:29;;;;;;;17.35;5.47;;;;;;;2.30;68.69;101534.56;1087797;54;20045;-84
2022/01/21 09:29:34;;;;;;;14.73;5.97;;;;;;;2.09;68.64;101535.31;1088202;54;20034;-84
2022/01/21 09:30:36;;;;;;;17.10;5.70;;;;;;;2.09;68.87;101530.03;1088149;54;20063;-84
2022/01/21 09:31:43;;;;;;;14.38;5.78;;;;;;;2.20;69.01;101534.97;1088317;54;20034;-86
2022/01/21 09:32:48;;;;;;;16.17;5.85;;;;;;;2.10;69.11;101535.28;1088216;54;20018;-85
2022/01/21 09:34:11;;;;;;;15.63;5.82;;;;;;;2.20;68.81;101543.72;1088337;54;20052;-83
2022/01/21 09:35:15;;;;;;;15.57;6.18;;;;;;;2.14;68.77;101543.97;1088295;54;20053;-85
2022/01/21 09:36:19;;;;;;;14.57;6.53;;;;;;;2.09;69.19;101540.59;1088032;54;20034;-83
2022/01/21 09:37:23;;;;;;;12.65;5.88;;;;;;;2.09;68.84;101541.47;1088367;46;20034;-80
2022/01/21 09:38:38;;;;;;;17.10;6.28;;;;;;;1.98;69.20;101541.88;1088060;54;20082;-84
2022/01/21 09:39:51;;;;;;;13.20;6.45;;;;;;;2.24;68.93;101549.75;1088269;54;20057;-83
2022/01/21 09:41:15;;;;;;;10.82;4.70;;;;;;;2.38;68.56;101534.31;1087745;54;20038;-81
2022/01/21 09:42:28;;;;;;;11.60;5.25;;;;;;;2.29;68.85;101550.47;1087382;54;20034;-82
2022/01/21 09:43:34;;;;;;;11.85;4.80;;;;;;;2.13;68.99;101542.22;1087645;54;20046;-79
2022/01/21 09:44:39;;;;;;;14.20;5.72;;;;;;;2.02;69.07;101553.16;1088201;54;20043;-83
2022/01/21 09:45:59;;;;;;;13.10;4.85;;;;;;;2.14;68.57;101546.59;1088259;54;20030;-84
2022/01/21 09:47:06;;;;;;;12.20;5.13;;;;;;;1.95;68.92;101552.50;1088699;39;20982;-82
2022/01/21 09:48:10;;;;;;;15.40;6.47;;;;;;;2.19;68.79;101542.00;1088076;54;20039;-81
2022/01/21 09:49:26;;;;;;;12.23;5.10;;;;;;;2.34;68.16;101537.97;1088277;54;20034;-83
2022/01/21 09:50:42;;;;;;;10.80;4.70;;;;;;;2.42;68.39;101541.19;1087713;54;20644;-80
2022/01/21 09:51:47;;;;;;;10.75;4.22;;;;;;;2.50;68.30;101544.41;1087918;54;20038;-81
2022/01/21 09:52:59;;;;;;;12.73;4.65;;;;;;;2.40;67.64;101539.53;1088027;54;20034;-82
2022/01/21 09:54:02;;;;;;;11.45;4.53;;;;;;;2.49;68.23;101537.41;1088111;54;20034;-80
2022/01/21 09:55:20;;;;;;;11.50;5.32;;;;;;;2.24;68.13;101539.19;1088176;54;20030;-83
2022/01/21 09:56:22;;;;;;;11.13;4.72;;;;;;;2.25;68.54;101543.56;1088317;54;20042;-82
2022/01/21 09:58:04;;;;;;;13.27;4.47;;;;;;;2.36;67.84;101530.84;1088324;54;20019;-83
2022/01/21 09:59:06;;;;;;;13.05;4.85;;;;;;;2.23;68.40;101533.06;1088518;46;20034;-84
2022/01/21 10:00:12;;;;;;;14.57;5.15;;;;;;;2.09;68.63;101544.13;1088264;54;20033;-84
2022/01/21 10:01:21;;;;;;;11.35;4.88;;;;;;;2.33;68.46;101547.66;1088156;54;20045;-82
2022/01/21 10:02:31;;;;;;;13.55;4.78;;;;;;;2.20;68.08;101535.81;1088380;54;20094;-83
2022/01/21 10:03:35;;;;;;;15.85;6.47;;;;;;;2.18;68.78;101538.50;1088290;54;20019;-85
2022/01/21 10:04:47;;;;;;;14.77;5.70;;;;;;;2.25;68.31;101539.16;1088726;46;20029;-83
2022/01/21 10:05:51;;;;;;;11.35;4.85;;;;;;;2.25;68.67;101543.56;1088137;54;20027;-85
2022/01/21 10:07:16;;;;;;;13.68;5.43;;;;;;;2.36;68.48;101537.94;1088239;54;20023;-84
2022/01/21 10:08:23;;;;;;;12.80;5.03;;;;;;;2.21;68.50;101547.25;1088146;54;20038;-83
2022/01/21 10:09:28;;;;;;;11.70;4.80;;;;;;;2.38;68.23;101547.50;1088249;54;20023;-84
2022/01/21 10:10:43;;;;;;;12.93;4.63;;;;;;;2.49;68.04;101540.06;1088223;54;20030;-83
2022/01/21 10:11:49;;;;;;;10.23;4.07;;;;;;;2.62;67.64;101545.75;1088195;54;20075;-83
2022/01/21 10:13:01;;;;;;;9.73;4.07;;;;;;;2.54;67.84;101544.28;1088096;54;20046;-83
2022/01/21 10:14:06;;;;;;;11.52;5.43;;;;;;;2.39;67.98;101543.06;1090047;46;20041;-82
2022/01/21 10:15:32;;;;;;;12.88;5.28;;;;;;;2.43;68.04;101542.91;1088256;54;20038;-84
2022/01/21 10:16:36;;;;;;;9.90;4.65;;;;;;;2.66;67.69;101538.56;1088239;54;20047;-82
2022/01/21 10:18:06;;;;;;;11.35;4.70;;;;;;;2.60;67.18;101541.41;1088187;54;20019;-83
2022/01/21 10:19:12;;;;;;;14.70;5.27;;;;;;;2.46;68.21;101539.28;1089359;46;20034;-82
2022/01/21 10:20:16;;;;;;;12.52;5.25;;;;;;;2.67;67.37;101532.38;1088226;54;20170;-83
2022/01/21 10:21:30;;;;;;;11.98;6.20;;;;;;;2.70;67.54;101540.16;1088281;54;20025;-83
2022/01/21 10:22:34;;;;;;;10.75;5.10;;;;;;;2.82;67.23;101536.22;1088279;54;20031;-83
2022/01/21 10:23:44;;;;;;;13.40;4.25;;;;;;;2.81;66.92;101537.13;1088275;54;20035;-83
2022/01/21 10:24:58;;;;;;;15.00;4.80;;;;;;;2.81;67.36;101539.78;1088313;54;20039;-84
2022/01/21 10:26:02;;;;;;;10.15;4.18;;;;;;;2.92;67.04;101540.25;1088297;54;20034;-85
2022/01/21 10:27:25;;;;;;;9.95;4.22;;;;;;;2.95;66.87;101540.09;1088316;54;20026;-84
2022/01/21 10:28:55;;;;;;;15.40;5.28;;;;;;;2.59;67.28;101537.09;1088168;54;20078;-85
2022/01/21 10:30:00;;;;;;;17.90;5.32;;;;;;;2.64;67.99;101543.03;1088219;54;20034;-84
2022/01/21 10:31:11;;;;;;;13.75;4.75;;;;;;;2.76;67.79;101528.50;1088268;54;20034;-83
2022/01/21 10:32:45;;;;;;;13.60;5.07;;;;;;;2.62;67.57;101537.81;1088309;54;20025;-83
2022/01/21 10:33:56;;;;;;;18.67;6.13;;;;;;;2.49;67.79;101533.91;1088260;54;20030;-85
2022/01/21 10:34:57;;;;;;;16.60;6.22;;;;;;;2.44;67.88;101534.06;1088348;54;20038;-84
2022/01/21 10:36:25;;;;;;;15.95;4.95;;;;;;;2.30;68.47;101533.72;1088369;54;20030;-84
2022/01/21 10:37:35;;;;;;;12.25;5.57;;;;;;;2.41;68.35;101533.31;1088217;54;20033;-83
2022/01/21 10:38:44;;;;;;;15.52;5.65;;;;;;;2.40;68.42;101531.59;1088320;54;20061;-82
2022/01/21 10:39:57;;;;;;;14.95;5.10;;;;;;;2.43;68.27;101524.44;1088212;54;20617;-82
2022/01/21 10:41:06;;;;;;;18.60;5.07;;;;;;;2.55;68.09;101527.53;1087964;54;20078;-81
2022/01/21 10:42:23;;;;;;;15.93;5.10;;;;;;;2.54;67.87;101533.72;1088012;54;20046;-83
2022/01/21 10:43:28;;;;;;;12.45;5.93;;;;;;;2.44;68.13;101536.72;1088209;54;20038;-84
2022/01/21 10:44:49;;;;;;;17.52;5.60;;;;;;;2.31;68.23;101523.09;1088302;54;20022;-82
2022/01/21 10:45:56;;;;;;;15.45;5.80;;;;;;;2.43;68.29;101529.72;1088228;54;20054;-83
2022/01/21 10:47:04;;;;;;;11.35;5.13;;;;;;;2.63;67.88;101525.47;1088129;54;20102;-81
2022/01/21 10:48:08;;;;;;;13.55;5.43;;;;;;;2.70;67.78;101528.75;1088080;54;20059;-85
2022/01/21 10:49:18;;;;;;;20.55;5.75;;;;;;;2.75;67.58;101521.50;1087865;54;20036;-81
2022/01/21 10:50:25;;;;;;;8.73;3.63;;;;;;;2.74;67.82;101525.94;1088002;54;20038;-82
2022/01/21 10:51:28;;;;;;;11.50;4.30;;;;;;;2.84;67.60;101520.31;1087956;54;20054;-81
2022/01/21 10:53:03;;;;;;;13.00;5.07;;;;;;;2.82;67.80;101515.09;1088058;54;20026;-81
2022/01/21 10:54:20;;;;;;;12.50;4.47;;;;;;;2.91;67.41;101516.50;1087960;54;20019;-80
2022/01/21 10:55:33;;;;;;;12.65;4.70;;;;;;;2.97;67.02;101517.13;1088073;54;20034;-82
2022/01/21 10:56:35;;;;;;;11.27;4.50;;;;;;;3.05;67.10;101516.84;1088294;54;20019;-83
2022/01/21 10:57:40;;;;;;;12.32;4.45;;;;;;;2.75;67.36;101517.09;1088496;54;20495;-85
2022/01/21 10:58:44;;;;;;;11.30;4.18;;;;;;;2.81;67.21;101523.94;1088504;54;20022;-83
2022/01/21 10:59:54;;;;;;;9.52;4.55;;;;;;;2.76;67.41;101516.19;1087868;54;20042;-82
2022/01/21 11:01:01;;;;;;;12.93;4.93;;;;;;;2.59;67.57;101516.81;1088335;54;20879;-82
2022/01/21 11:02:04;;;;;;;14.55;5.55;;;;;;;2.60;67.88;101523.81;1088431;54;20090;-83
2022/01/21 11:03:13;;;;;;;12.57;4.35;;;;;;;2.78;67.44;101526.69;1088189;54;20048;-83
2022/01/21 11:04:31;;;;;;;10.20;3.83;;;;;;;2.71;67.12;101519.91;1088404;54;20042;-82
2022/01/21 11:06:10;;;;;;;12.65;4.70;;;;;;;2.87;67.15;101523.69;1090765;46;20018;-82
2022/01/21 11:07:17;;;;;;;16.63;5.22;;;;;;;2.73;67.46;101532.13;1088280;54;20536;-83
2022/01/21 11:08:28;;;;;;;11.88;4.68;;;;;;;2.83;67.19;101522.09;1088307;54;20064;-82
2022/01/21 11:09:33;;;;;;;13.30;4.68;;;;;;;2.69;67.56;101524.38;1088389;54;20018;-84
2022/01/21 11:12:14;;;;;;;15.45;4.68;;;;;;;2.55;67.61;101517.81;1088508;54;20798;-84
2022/01/21 11:13:28;;;;;;;12.90;5.15;;;;;;;2.48;68.12;101524.25;1088642;54;20018;-82
2022/01/21 11:14:34;;;;;;;18.67;6.35;;;;;;;2.47;68.17;101520.78;1088536;54;20082;-85
2022/01/21 11:15:38;;;;;;;19.15;6.05;;;;;;;2.65;67.86;101508.66;1088319;54;20049;-84
2022/01/21 11:17:11;;;;;;;14.25;5.15;;;;;;;2.80;67.53;101507.19;1088485;54;20019;-85
2022/01/21 11:18:15;;;;;;;12.63;4.78;;;;;;;2.78;67.58;101508.19;1088637;54;20026;-82
2022/01/21 11:19:34;;;;;;;19.50;4.68;;;;;;;2.87;67.18;101513.13;1088592;54;20035;-83
2022/01/21 11:20:40;;;;;;;10.88;4.38;;;;;;;3.02;66.97;101511.66;1091038;31;20490;-84
2022/01/21 11:21:51;;;;;;;12.02;4.38;;;;;;;3.01;67.25;101514.38;1095323;46;20049;-85
2022/01/21 11:23:09;;;;;;;15.02;5.03;;;;;;;2.88;67.07;101506.91;1088562;54;20083;-86
2022/01/21 11:24:23;;;;;;;13.15;4.57;;;;;;;2.99;67.32;101503.00;1091549;46;20014;-86
2022/01/21 11:26:08;;;;;;;13.50;4.35;;;;;;;2.73;67.51;101508.38;1088541;54;20044;-86
2022/01/21 11:27:20;;;;;;;17.63;4.47;;;;;;;2.87;67.02;101502.56;1088295;54;20034;-82
2022/01/21 11:28:24;;;;;;;12.82;4.78;;;;;;;2.95;67.07;101504.91;1088343;54;20061;-84
2022/01/21 11:29:33;;;;;;;12.23;4.47;;;;;;;3.06;66.73;101501.81;1088428;54;20027;-83
2022/01/21 11:30:37;;;;;;;12.63;4.72;;;;;;;3.02;66.77;101511.66;1088559;54;20038;-84
2022/01/21 11:31:43;;;;;;;14.55;3.88;;;;;;;3.19;66.60;101502.19;1088453;54;20019;-83
2022/01/21 11:32:51;;;;;;;10.82;4.70;;;;;;;2.95;66.57;101511.03;1088447;54;20049;-84
2022/01/21 11:33:55;;;;;;;10.95;4.55;;;;;;;2.92;66.94;101503.25;1088383;47;20033;-84
2022/01/21 11:35:03;;;;;;;11.40;4.57;;;;;;;2.94;66.89;101511.94;1088400;54;20663;-86
2022/01/21 11:36:09;;;;;;;11.32;4.25;;;;;;;3.11;66.77;101499.88;1088458;54;20094;-84
2022/01/21 11:37:14;;;;;;;10.07;3.97;;;;;;;3.10;66.67;101499.00;1088445;54;20022;-82
2022/01/21 11:38:25;;;;;;;16.63;5.07;;;;;;;3.21;66.57;101498.56;1088461;54;20056;-82
2022/01/21 11:39:31;;;;;;;11.05;4.28;;;;;;;3.31;66.25;101495.56;1088404;54;20038;-81
2022/01/21 11:40:36;;;;;;;11.55;4.70;;;;;;;3.45;66.14;101495.00;1088172;54;20636;-80
2022/01/21 11:41:45;;;;;;;10.52;4.32;;;;;;;3.45;65.99;101493.22;1088110;54;20042;-80
2022/01/21 11:42:52;;;;;;;11.30;4.22;;;;;;;3.34;66.20;101493.66;1088280;54;20054;-80
2022/01/21 11:44:00;;;;;;;12.35;4.20;;;;;;;3.31;66.27;101496.44;1087664;54;20042;-79
2022/01/21 11:45:19;;;;;;;15.02;4.60;;;;;;;3.26;66.38;101498.38;1087818;54;20097;-80
2022/01/21 11:46:47;;;;;;;11.18;4.88;;;;;;;3.20;66.38;101503.91;1088104;54;20019;-83
2022/01/21 11:50:18;;;;;;;14.30;5.28;;;;;;;3.22;66.06;101497.66;1088645;54;20011;-83
2022/01/21 11:51:31;;;;;;;11.07;4.25;;;;;;;3.36;66.04;101493.59;1097425;39;20445;-85
2022/01/21 11:58:28;;;;;;;14.05;4.13;;;;;;;3.37;65.64;101497.97;1087941;54;20026;-82
2022/01/21 11:59:42;;;;;;;12.63;4.28;;;;;;;3.32;65.72;101487.56;1087373;54;20059;-81
2022/01/21 12:00:50;;;;;;;10.80;4.00;;;;;;;3.43;65.80;101484.47;1087451;54;20026;-81
2022/01/21 12:01:56;;;;;;;9.23;3.47;;;;;;;3.45;65.53;101487.09;1086861;54;20049;-81
2022/01/21 12:02:57;;;;;;;9.68;4.25;;;;;;;3.25;65.74;101476.38;1089604;39;20503;-82
2022/01/21 12:04:05;;;;;;;16.77;4.10;;;;;;;3.40;65.84;101488.13;1088285;54;20019;-83
2022/01/21 12:05:11;;;;;;;17.20;3.65;;;;;;;3.51;65.54;101477.09;1088276;54;20026;-83
2022/01/21 12:06:34;;;;;;;11.55;3.30;;;;;;;3.63;65.24;101474.84;1088238;54;20042;-83
2022/01/21 12:07:51;;;;;;;12.63;4.18;;;;;;;3.67;65.10;101479.09;1088126;54;20065;-83
2022/01/21 12:08:55;;;;;;;11.18;4.25;;;;;;;3.64;65.21;101471.28;1088738;46;20046;-83
2022/01/21 12:10:03;;;;;;;13.45;5.65;;;;;;;3.61;65.42;101481.97;1088235;54;20030;-83
2022/01/21 12:11:34;;;;;;;13.85;5.57;;;;;;;3.53;65.38;101472.59;1088269;54;20046;-82
2022/01/21 12:13:17;;;;;;;13.85;4.57;;;;;;;3.74;64.93;101472.63;1088458;54;20053;-81
2022/01/21 12:14:45;;;;;;;11.20;4.28;;;;;;;3.65;64.39;101470.38;1088142;39;21296;-82
2022/01/21 12:17:41;;;;;;;15.75;5.25;;;;;;;3.53;65.00;101472.59;1086571;54;20018;-78
2022/01/21 12:20:37;;;;;;;14.05;3.78;;;;;;;3.54;65.15;101474.31;1087088;54;20040;-80
2022/01/21 12:21:43;;;;;;;11.23;3.72;;;;;;;3.46;65.14;101465.84;1086788;54;20046;-78
2022/01/21 12:23:12;;;;;;;15.07;5.05;;;;;;;3.36;64.90;101473.28;1086583;54;20062;-80
2022/01/21 12:24:16;;;;;;;16.52;4.85;;;;;;;3.49;65.27;101473.66;1086587;54;20051;-78
2022/01/21 12:25:21;;;;;;;17.02;4.20;;;;;;;3.39;65.43;101477.63;1087267;54;20038;-80
2022/01/21 12:26:23;;;;;;;18.23;4.53;;;;;;;3.51;65.28;101477.09;1086457;54;20038;-78
2022/01/21 12:27:28;;;;;;;9.75;3.50;;;;;;;3.67;64.93;101476.47;1086178;54;20106;-80
2022/01/21 12:28:29;;;;;;;9.70;3.72;;;;;;;3.75;64.72;101463.75;1086280;54;20054;-81
2022/01/21 12:29:33;;;;;;;17.92;4.60;;;;;;;3.47;65.30;101472.88;1086427;54;20038;-78
2022/01/21 12:30:38;;;;;;;15.30;4.32;;;;;;;3.58;65.09;101473.28;1087064;54;20038;-81
2022/01/21 12:31:56;;;;;;;11.68;4.50;;;;;;;3.63;65.23;101470.44;1086976;54;20037;-81
2022/01/21 12:33:08;;;;;;;11.07;3.42;;;;;;;3.77;65.05;101477.78;1088020;39;20551;-80
2022/01/21 12:34:13;;;;;;;11.48;3.55;;;;;;;3.84;64.72;101471.31;1086610;54;20049;-79
2022/01/21 12:35:19;;;;;;;11.60;3.72;;;;;;;3.89;64.44;101460.53;1086861;54;20046;-80
2022/01/21 12:36:25;;;;;;;14.13;4.22;;;;;;;3.97;64.60;101468.13;1086971;54;20046;-79
2022/01/21 12:37:50;;;;;;;11.02;3.60;;;;;;;4.05;64.27;101468.66;1086650;54;20061;-81
2022/01/21 12:40:34;;;;;;;12.05;3.55;;;;;;;3.75;64.70;101463.75;1086680;54;20039;-80
2022/01/21 12:41:46;;;;;;;17.30;4.30;;;;;;;3.64;64.86;101464.19;1086983;54;20061;-81
2022/01/21 12:42:47;;;;;;;10.82;3.38;;;;;;;3.69;64.89;101467.53;1086056;54;20098;-79